Time;durP1;ratioP1;P1;durP2;ratioP2;P2;SDS_P1;SDS_P2;PMS_P1;PMS_P2;Temp;Humidity;BMP_temperature;BMP_pressure;BME280_temperature;BME280_humidity;BME280_pressure;Samples;Min_cycle;Max_cycle;Signal;HPM_P1;HPM_P2
2022/07/13 00:02:25;;;;;;;9.85;3.50;;;;;;;;;;4892990;29;20131;-74
2022/07/13 00:04:51;;;;;;;9.90;3.70;;;;;;;;;;4896527;29;20545;-73
2022/07/13 00:07:17;;;;;;;11.02;4.13;;;;;;;;;;4881060;29;20163;-74
2022/07/13 00:09:43;;;;;;;14.43;3.80;;;;;;;;;;4889374;29;20048;-72
2022/07/13 00:12:09;;;;;;;9.77;3.75;;;;;;;;;;4892416;29;20049;-73
2022/07/13 00:14:35;;;;;;;12.13;3.60;;;;;;;;;;4890858;29;20108;-74
2022/07/13 00:17:01;;;;;;;9.93;4.00;;;;;;;;;;4890404;29;20261;-74
2022/07/13 00:19:26;;;;;;;11.75;4.00;;;;;;;;;;4891893;29;20049;-73
2022/07/13 00:21:55;;;;;;;16.25;4.32;;;;;;;;;;4889329;29;20076;-74
2022/07/13 00:24:21;;;;;;;10.02;3.63;;;;;;;;;;4891872;29;20041;-75
2022/07/13 00:26:48;;;;;;;11.43;4.10;;;;;;;;;;4891161;29;20569;-75
2022/07/13 00:29:14;;;;;;;14.77;3.95;;;;;;;;;;4895163;29;20091;-73
2022/07/13 00:31:39;;;;;;;9.30;3.78;;;;;;;;;;4890000;29;20426;-74
2022/07/13 00:34:05;;;;;;;11.10;3.70;;;;;;;;;;4884846;29;20045;-73
2022/07/13 00:36:31;;;;;;;7.68;4.15;;;;;;;;;;4894678;29;20273;-76
2022/07/13 00:38:57;;;;;;;12.57;3.83;;;;;;;;;;4889460;29;20136;-75
2022/07/13 00:41:23;;;;;;;8.88;3.65;;;;;;;;;;4897206;29;20056;-74
2022/07/13 00:43:49;;;;;;;10.40;3.90;;;;;;;;;;4891965;29;20051;-73
2022/07/13 00:46:15;;;;;;;10.85;4.22;;;;;;;;;;4892997;29;20056;-75
2022/07/13 00:48:42;;;;;;;11.32;4.00;;;;;;;;;;4894911;29;20052;-77
2022/07/13 00:51:08;;;;;;;6.30;4.05;;;;;;;;;;4895829;29;20068;-76
2022/07/13 00:53:38;;;;;;;10.02;4.32;;;;;;;;;;4894496;29;20448;-74
2022/07/13 00:56:05;;;;;;;9.07;4.20;;;;;;;;;;4890178;29;20521;-74
2022/07/13 00:58:32;;;;;;;10.23;3.83;;;;;;;;;;4881858;29;20064;-74
2022/07/13 01:00:58;;;;;;;10.95;4.05;;;;;;;;;;4890188;29;20380;-74
2022/07/13 01:03:24;;;;;;;15.80;4.68;;;;;;;;;;4890324;29;20052;-76
2022/07/13 01:05:52;;;;;;;12.80;4.20;;;;;;;;;;4891594;29;20056;-75
2022/07/13 01:08:20;;;;;;;14.95;4.50;;;;;;;;;;4894141;29;20120;-75
2022/07/13 01:10:47;;;;;;;10.55;4.28;;;;;;;;;;4882486;29;20056;-73
2022/07/13 01:13:16;;;;;;;16.45;5.22;;;;;;;;;;4889366;29;20240;-73
2022/07/13 01:15:43;;;;;;;11.32;4.35;;;;;;;;;;4891987;29;20049;-74
2022/07/13 01:18:12;;;;;;;6.55;3.40;;;;;;;;;;4882792;29;20518;-72
2022/07/13 01:20:42;;;;;;;8.07;4.20;;;;;;;;;;4889198;29;20049;-73
2022/07/13 01:23:12;;;;;;;17.48;4.18;;;;;;;;;;4890592;29;20044;-75
2022/07/13 01:25:39;;;;;;;12.38;4.63;;;;;;;;;;4873921;29;20123;-73
2022/07/13 01:28:05;;;;;;;7.40;4.22;;;;;;;;;;4879794;29;20423;-73
2022/07/13 01:30:31;;;;;;;8.65;3.92;;;;;;;;;;4890501;29;20044;-74
2022/07/13 01:32:57;;;;;;;10.45;4.32;;;;;;;;;;4888454;29;20052;-74
2022/07/13 01:35:24;;;;;;;11.88;4.30;;;;;;;;;;4888628;29;20447;-75
2022/07/13 01:37:50;;;;;;;9.40;4.05;;;;;;;;;;4887365;29;20069;-76
2022/07/13 01:40:16;;;;;;;14.73;4.50;;;;;;;;;;4891905;29;20449;-75
2022/07/13 01:42:45;;;;;;;8.18;4.25;;;;;;;;;;4892820;29;20052;-73
2022/07/13 01:45:12;;;;;;;14.05;4.28;;;;;;;;;;4891469;29;20051;-74
2022/07/13 01:47:46;;;;;;;13.88;3.78;;;;;;;;;;4882058;29;20454;-76
2022/07/13 01:50:13;;;;;;;10.95;4.22;;;;;;;;;;4889538;29;20759;-74
2022/07/13 01:52:39;;;;;;;9.10;4.03;;;;;;;;;;4886559;29;20559;-74
2022/07/13 01:55:06;;;;;;;7.88;3.65;;;;;;;;;;4891911;29;20045;-74
2022/07/13 01:57:33;;;;;;;13.13;3.47;;;;;;;;;;4892614;29;20414;-75
2022/07/13 02:00:19;;;;;;;14.18;4.10;;;;;;;;;;4883803;29;20107;-73
2022/07/13 02:02:46;;;;;;;10.63;3.65;;;;;;;;;;4881592;29;20068;-73
2022/07/13 02:05:13;;;;;;;10.75;3.80;;;;;;;;;;4877372;29;20052;-74
2022/07/13 02:07:40;;;;;;;8.27;3.63;;;;;;;;;;4888988;29;20657;-75
2022/07/13 02:10:08;;;;;;;12.13;3.83;;;;;;;;;;4886641;29;20510;-75
2022/07/13 02:12:33;;;;;;;8.35;3.63;;;;;;;;;;4890058;29;20301;-74
2022/07/13 02:14:59;;;;;;;9.70;3.83;;;;;;;;;;4887007;29;20063;-75
2022/07/13 02:17:25;;;;;;;7.78;3.60;;;;;;;;;;4888010;29;20291;-76
2022/07/13 02:19:51;;;;;;;7.82;3.60;;;;;;;;;;4890490;29;20052;-76
2022/07/13 02:22:17;;;;;;;8.85;3.42;;;;;;;;;;4878581;29;20051;-74
2022/07/13 02:24:43;;;;;;;8.63;3.78;;;;;;;;;;4888953;29;20049;-74
2022/07/13 02:27:09;;;;;;;13.00;4.15;;;;;;;;;;4880424;29;20057;-74
2022/07/13 02:29:35;;;;;;;7.90;3.65;;;;;;;;;;4883548;29;20119;-75
2022/07/13 02:32:01;;;;;;;6.90;3.40;;;;;;;;;;4888268;29;20152;-75
2022/07/13 02:34:29;;;;;;;7.00;3.60;;;;;;;;;;4885583;29;20478;-75
2022/07/13 02:36:56;;;;;;;10.15;3.88;;;;;;;;;;4889406;29;20100;-73
2022/07/13 02:39:22;;;;;;;9.90;4.00;;;;;;;;;;4889201;29;20044;-74
2022/07/13 02:41:49;;;;;;;6.97;3.33;;;;;;;;;;4888165;29;20059;-74
2022/07/13 02:44:15;;;;;;;16.65;4.07;;;;;;;;;;4887218;29;20052;-73
2022/07/13 02:46:41;;;;;;;8.55;3.45;;;;;;;;;;4888707;29;20466;-75
2022/07/13 02:49:07;;;;;;;10.63;3.25;;;;;;;;;;4882646;29;20052;-75
2022/07/13 02:51:33;;;;;;;10.55;3.80;;;;;;;;;;4883375;29;20550;-73
2022/07/13 02:53:59;;;;;;;7.70;3.13;;;;;;;;;;4883812;29;20136;-74
2022/07/13 02:56:24;;;;;;;7.00;3.15;;;;;;;;;;4885824;29;20135;-75
2022/07/13 02:58:50;;;;;;;7.10;3.13;;;;;;;;;;4885081;29;20048;-73
2022/07/13 03:01:16;;;;;;;7.80;4.07;;;;;;;;;;4888772;29;20483;-75
2022/07/13 03:03:42;;;;;;;4.40;3.17;;;;;;;;;;4885651;29;20420;-75
2022/07/13 03:06:08;;;;;;;10.68;3.47;;;;;;;;;;4875415;29;20052;-75
2022/07/13 03:08:34;;;;;;;7.95;3.42;;;;;;;;;;4889807;29;20478;-74
2022/07/13 03:11:00;;;;;;;11.45;3.50;;;;;;;;;;4890137;29;20048;-75
2022/07/13 03:13:25;;;;;;;7.72;3.40;;;;;;;;;;4885367;29;20056;-77
2022/07/13 03:15:51;;;;;;;11.93;3.58;;;;;;;;;;4884861;29;20104;-75
2022/07/13 03:18:17;;;;;;;6.20;3.10;;;;;;;;;;4884132;29;20060;-73
2022/07/13 03:20:43;;;;;;;9.18;3.33;;;;;;;;;;4891991;29;20136;-73
2022/07/13 03:23:09;;;;;;;9.93;3.40;;;;;;;;;;4892519;29;20107;-75
2022/07/13 03:25:35;;;;;;;7.03;3.20;;;;;;;;;;4884896;29;20431;-75
2022/07/13 03:28:01;;;;;;;9.02;3.45;;;;;;;;;;4889438;29;20045;-76
2022/07/13 03:30:28;;;;;;;8.10;3.25;;;;;;;;;;4889019;29;20116;-78
2022/07/13 03:32:53;;;;;;;9.27;3.20;;;;;;;;;;4884598;29;20407;-73
2022/07/13 03:35:19;;;;;;;9.38;3.55;;;;;;;;;;4890436;29;20117;-74
2022/07/13 03:37:45;;;;;;;10.20;3.78;;;;;;;;;;4888304;29;20176;-73
2022/07/13 03:40:11;;;;;;;10.93;3.17;;;;;;;;;;4887130;29;20123;-74
2022/07/13 03:42:37;;;;;;;8.70;3.40;;;;;;;;;;4886389;29;20753;-75
2022/07/13 03:45:04;;;;;;;14.52;3.70;;;;;;;;;;4895931;29;20131;-74
2022/07/13 03:47:30;;;;;;;6.93;3.65;;;;;;;;;;4891351;29;20259;-76
2022/07/13 03:49:56;;;;;;;7.90;3.67;;;;;;;;;;4889981;29;20056;-74
2022/07/13 03:52:22;;;;;;;7.38;3.05;;;;;;;;;;4889256;29;20119;-75
2022/07/13 03:54:48;;;;;;;13.48;3.10;;;;;;;;;;4895266;29;20088;-73
2022/07/13 03:57:14;;;;;;;8.98;3.42;;;;;;;;;;4891734;29;20414;-75
2022/07/13 03:59:40;;;;;;;7.53;3.58;;;;;;;;;;4889099;29;20060;-76
2022/07/13 04:02:06;;;;;;;6.78;3.53;;;;;;;;;;4889578;29;20360;-74
2022/07/13 04:04:32;;;;;;;8.57;3.50;;;;;;;;;;4891953;29;20076;-75
2022/07/13 04:06:58;;;;;;;6.20;3.58;;;;;;;;;;4887700;29;20049;-74
2022/07/13 04:09:23;;;;;;;8.77;3.78;;;;;;;;;;4886577;29;20107;-77
2022/07/13 04:11:49;;;;;;;10.30;3.50;;;;;;;;;;4894079;29;20045;-75
2022/07/13 04:14:15;;;;;;;8.95;3.33;;;;;;;;;;4887948;29;20056;-75
2022/07/13 04:16:41;;;;;;;12.52;3.40;;;;;;;;;;4892541;29;20556;-75
2022/07/13 04:19:07;;;;;;;6.25;3.10;;;;;;;;;;4890400;29;20050;-74
2022/07/13 04:21:32;;;;;;;11.38;3.47;;;;;;;;;;4899561;29;20415;-75
2022/07/13 04:23:58;;;;;;;8.35;3.50;;;;;;;;;;4894776;29;20064;-75
2022/07/13 04:26:25;;;;;;;8.93;3.33;;;;;;;;;;4893844;29;20048;-77
2022/07/13 04:28:51;;;;;;;18.45;3.45;;;;;;;;;;4896395;29;20124;-76
2022/07/13 04:31:16;;;;;;;7.47;3.22;;;;;;;;;;4905944;29;20079;-81
2022/07/13 04:33:42;;;;;;;5.10;3.28;;;;;;;;;;4894559;29;20053;-81
2022/07/13 04:36:08;;;;;;;9.75;3.28;;;;;;;;;;4895921;29;20067;-77
2022/07/13 04:38:35;;;;;;;6.63;3.22;;;;;;;;;;4891562;29;20057;-77
2022/07/13 04:41:00;;;;;;;6.60;3.30;;;;;;;;;;4895867;29;20449;-80
2022/07/13 04:43:27;;;;;;;6.63;3.30;;;;;;;;;;4895554;29;20079;-81
2022/07/13 04:45:53;;;;;;;10.40;3.13;;;;;;;;;;4897231;29;20049;-79
2022/07/13 04:48:19;;;;;;;7.65;3.33;;;;;;;;;;4902088;29;20104;-83
2022/07/13 04:50:45;;;;;;;8.90;3.50;;;;;;;;;;4900663;29;20040;-76
2022/07/13 04:53:11;;;;;;;12.68;4.20;;;;;;;;;;4890780;29;20483;-75
2022/07/13 04:55:37;;;;;;;14.48;3.50;;;;;;;;;;4896207;29;20052;-75
2022/07/13 04:58:03;;;;;;;8.57;3.55;;;;;;;;;;4893139;29;20121;-80
2022/07/13 05:00:29;;;;;;;19.63;3.70;;;;;;;;;;4900135;29;20044;-79
2022/07/13 05:02:55;;;;;;;10.70;3.72;;;;;;;;;;4897397;29;20088;-80
2022/07/13 05:05:21;;;;;;;10.35;2.95;;;;;;;;;;4897535;29;20135;-75
2022/07/13 05:07:47;;;;;;;13.25;3.60;;;;;;;;;;4894245;29;20479;-77
2022/07/13 05:10:13;;;;;;;6.28;3.30;;;;;;;;;;4901928;29;20056;-80
2022/07/13 05:12:41;;;;;;;8.32;3.40;;;;;;;;;;4904894;29;20060;-82
2022/07/13 05:15:09;;;;;;;10.45;3.65;;;;;;;;;;4904962;29;20060;-80
2022/07/13 05:17:35;;;;;;;7.57;3.33;;;;;;;;;;4897685;29;20052;-82
2022/07/13 05:20:02;;;;;;;9.60;3.70;;;;;;;;;;4900910;29;20048;-81
2022/07/13 05:22:28;;;;;;;13.98;3.45;;;;;;;;;;4892949;29;20044;-82
2022/07/13 05:24:55;;;;;;;10.88;3.50;;;;;;;;;;4889992;29;20141;-78
2022/07/13 05:27:22;;;;;;;10.95;3.67;;;;;;;;;;4892809;29;20076;-81
2022/07/13 05:29:50;;;;;;;14.93;4.00;;;;;;;;;;4888008;29;20135;-78
2022/07/13 05:32:16;;;;;;;12.63;4.35;;;;;;;;;;4889240;29;20128;-74
2022/07/13 05:34:42;;;;;;;11.45;4.85;;;;;;;;;;4895747;29;20051;-76
2022/07/13 05:37:09;;;;;;;12.00;5.38;;;;;;;;;;4894600;29;20045;-78
2022/07/13 05:39:35;;;;;;;15.73;5.00;;;;;;;;;;4888206;29;20385;-77
2022/07/13 05:42:01;;;;;;;15.98;5.28;;;;;;;;;;4891628;29;20056;-77
2022/07/13 05:44:27;;;;;;;19.45;5.00;;;;;;;;;;4898451;29;20409;-81
2022/07/13 05:46:54;;;;;;;14.65;4.80;;;;;;;;;;4899943;29;20147;-77
2022/07/13 05:49:20;;;;;;;12.07;4.80;;;;;;;;;;4888733;29;20049;-80
2022/07/13 05:51:46;;;;;;;6.95;4.50;;;;;;;;;;4889519;29;20052;-78
2022/07/13 05:54:12;;;;;;;15.98;4.50;;;;;;;;;;4894178;29;20080;-73
2022/07/13 05:56:39;;;;;;;18.73;4.57;;;;;;;;;;4902608;29;20135;-80
2022/07/13 05:59:05;;;;;;;12.82;5.03;;;;;;;;;;4895746;29;20490;-74
2022/07/13 06:01:31;;;;;;;16.40;5.38;;;;;;;;;;4891285;29;20059;-80
2022/07/13 06:03:57;;;;;;;21.58;5.38;;;;;;;;;;4899748;29;20045;-78
2022/07/13 06:06:23;;;;;;;8.63;3.90;;;;;;;;;;4892549;29;20036;-72
2022/07/13 06:08:49;;;;;;;10.52;4.13;;;;;;;;;;4891292;29;20072;-77
2022/07/13 06:11:15;;;;;;;17.42;4.18;;;;;;;;;;4894275;29;20087;-77
2022/07/13 06:13:41;;;;;;;7.85;4.35;;;;;;;;;;4893345;29;20060;-76
2022/07/13 06:16:07;;;;;;;12.55;4.10;;;;;;;;;;4893906;29;20053;-78
2022/07/13 06:18:33;;;;;;;13.65;4.65;;;;;;;;;;4893525;29;20049;-79
2022/07/13 06:20:59;;;;;;;14.02;4.43;;;;;;;;;;4895652;29;20163;-78
2022/07/13 06:23:25;;;;;;;9.73;4.50;;;;;;;;;;4894607;29;20101;-81
2022/07/13 06:25:52;;;;;;;12.57;5.00;;;;;;;;;;4896323;29;20060;-80
2022/07/13 06:28:18;;;;;;;8.55;3.72;;;;;;;;;;4897232;29;20120;-77
2022/07/13 06:30:44;;;;;;;21.10;4.00;;;;;;;;;;4888212;29;20563;-77
2022/07/13 06:33:10;;;;;;;10.02;4.10;;;;;;;;;;4898046;29;20044;-79
2022/07/13 06:35:37;;;;;;;11.48;3.42;;;;;;;;;;4899998;29;20491;-78
2022/07/13 06:38:03;;;;;;;15.57;3.85;;;;;;;;;;4899579;29;20071;-79
2022/07/13 06:40:29;;;;;;;16.60;4.05;;;;;;;;;;4897290;29;20123;-81
2022/07/13 06:42:55;;;;;;;14.82;4.00;;;;;;;;;;4888405;29;20052;-75
2022/07/13 06:45:22;;;;;;;14.68;4.35;;;;;;;;;;4879291;29;20073;-82
2022/07/13 06:47:49;;;;;;;12.88;4.10;;;;;;;;;;4898760;29;20055;-83
2022/07/13 06:50:15;;;;;;;10.48;4.10;;;;;;;;;;4897987;29;20052;-81
2022/07/13 06:52:43;;;;;;;13.57;3.67;;;;;;;;;;4902482;29;20079;-81
2022/07/13 06:55:09;;;;;;;13.18;3.53;;;;;;;;;;4894201;29;20197;-80
2022/07/13 06:57:36;;;;;;;10.18;3.65;;;;;;;;;;4892555;29;20064;-80
2022/07/13 07:00:03;;;;;;;9.00;3.53;;;;;;;;;;4899877;29;20064;-82
2022/07/13 07:02:29;;;;;;;11.85;4.22;;;;;;;;;;4888569;29;20211;-82
2022/07/13 07:04:55;;;;;;;10.07;3.95;;;;;;;;;;4902323;29;20045;-81
2022/07/13 07:07:22;;;;;;;10.98;3.25;;;;;;;;;;4901335;29;20049;-79
2022/07/13 07:09:48;;;;;;;14.45;3.08;;;;;;;;;;4890783;29;20056;-79
2022/07/13 07:12:14;;;;;;;10.70;3.50;;;;;;;;;;4879947;29;20071;-76
2022/07/13 07:14:40;;;;;;;11.52;3.20;;;;;;;;;;4891472;29;20076;-77
2022/07/13 07:17:06;;;;;;;8.38;2.83;;;;;;;;;;4890845;29;20041;-78
2022/07/13 07:19:32;;;;;;;10.93;3.15;;;;;;;;;;4891186;29;20052;-80
2022/07/13 07:21:58;;;;;;;12.77;3.15;;;;;;;;;;4891067;29;20071;-76
2022/07/13 07:24:24;;;;;;;19.75;3.60;;;;;;;;;;4891807;29;20127;-75
2022/07/13 07:26:53;;;;;;;12.23;3.30;;;;;;;;;;4895627;29;20491;-79
2022/07/13 07:29:19;;;;;;;16.48;3.30;;;;;;;;;;4873570;29;20045;-78
2022/07/13 07:31:45;;;;;;;19.63;3.25;;;;;;;;;;4890383;29;20072;-78
2022/07/13 07:34:11;;;;;;;13.82;3.40;;;;;;;;;;4884927;29;20053;-76
2022/07/13 07:36:36;;;;;;;12.82;3.17;;;;;;;;;;4887134;29;20120;-76
2022/07/13 07:39:03;;;;;;;9.23;3.08;;;;;;;;;;4891452;29;20089;-77
2022/07/13 07:41:29;;;;;;;11.77;3.75;;;;;;;;;;4886033;29;20053;-78
2022/07/13 07:43:56;;;;;;;11.55;2.95;;;;;;;;;;4886712;29;20059;-80
2022/07/13 07:46:21;;;;;;;10.88;3.00;;;;;;;;;;4896142;29;20474;-78
2022/07/13 07:48:47;;;;;;;14.20;2.58;;;;;;;;;;4898121;29;20218;-79
2022/07/13 07:51:13;;;;;;;12.60;3.00;;;;;;;;;;4906411;29;20068;-78
2022/07/13 07:53:39;;;;;;;6.78;2.33;;;;;;;;;;4912489;29;20068;-80
2022/07/13 07:56:05;;;;;;;11.18;2.60;;;;;;;;;;4922171;29;20028;-83
2022/07/13 07:58:31;;;;;;;9.07;2.85;;;;;;;;;;4922483;29;20049;-84
2022/07/13 08:00:57;;;;;;;7.57;2.63;;;;;;;;;;5010078;23;20064;-76
2022/07/13 08:03:23;;;;;;;7.80;2.92;;;;;;;;;;4940208;28;20031;-81
2022/07/13 08:05:52;;;;;;;8.52;2.72;;;;;;;;;;4989528;23;20051;-80
2022/07/13 08:08:18;;;;;;;15.63;3.30;;;;;;;;;;4981226;29;20751;-79
2022/07/13 08:10:44;;;;;;;9.98;2.80;;;;;;;;;;4980701;28;20039;-80
2022/07/13 08:13:11;;;;;;;12.68;2.60;;;;;;;;;;5141306;23;20050;-76
2022/07/13 08:21:00;;;;;;;9.57;3.35;;;;;;;;;;5090548;23;20044;-79
2022/07/13 08:31:58;;;;;;;9.35;3.03;;;;;;;;;;5116471;23;20043;-80
2022/07/13 08:40:02;;;;;;;11.45;2.85;;;;;;;;;;5220886;23;20056;-82
2022/07/13 08:42:29;;;;;;;13.65;2.75;;;;;;;;;;4912093;23;20053;-81
2022/07/13 08:44:54;;;;;;;11.02;2.50;;;;;;;;;;4914495;29;20060;-83
2022/07/13 08:47:21;;;;;;;11.38;2.85;;;;;;;;;;4947669;23;20064;-80
2022/07/13 08:49:50;;;;;;;4.95;2.30;;;;;;;;;;4887358;29;20033;-82
2022/07/13 08:52:17;;;;;;;5.78;2.38;;;;;;;;;;4914296;29;20059;-82
2022/07/13 08:54:43;;;;;;;13.93;2.70;;;;;;;;;;4948293;23;20054;-83
2022/07/13 08:57:10;;;;;;;11.48;3.40;;;;;;;;;;4955971;29;20117;-80
2022/07/13 08:59:35;;;;;;;15.43;3.53;;;;;;;;;;4945678;29;20039;-81
2022/07/13 09:02:02;;;;;;;18.98;3.70;;;;;;;;;;4955272;29;20067;-83
2022/07/13 09:04:28;;;;;;;16.60;4.20;;;;;;;;;;4949957;29;20027;-83
2022/07/13 09:06:56;;;;;;;19.98;3.97;;;;;;;;;;4950466;29;20379;-81
2022/07/13 09:09:31;;;;;;;14.15;3.70;;;;;;;;;;4937898;29;20103;-81
2022/07/13 09:12:17;;;;;;;15.65;3.83;;;;;;;;;;4921649;29;20059;-78
2022/07/13 09:14:50;;;;;;;11.00;3.20;;;;;;;;;;4921275;29;20050;-79
2022/07/13 09:17:39;;;;;;;11.32;3.40;;;;;;;;;;4929532;29;20048;-78
2022/07/13 09:20:15;;;;;;;11.05;3.30;;;;;;;;;;4925422;29;20124;-83
2022/07/13 09:25:37;;;;;;;7.35;3.45;;;;;;;;;;5418478;23;20041;-83
2022/07/13 09:33:11;;;;;;;12.25;3.05;;;;;;;;;;4936716;29;20051;-85
2022/07/13 09:35:45;;;;;;;10.77;2.90;;;;;;;;;;5052110;23;20036;-82
2022/07/13 09:38:28;;;;;;;;;;;;;;;;;;4921581;29;20032;-83
2022/07/13 09:40:55;;;;;;;13.70;3.30;;;;;;;;;;4904965;29;19950;-83
2022/07/13 09:46:09;;;;;;;7.72;2.83;;;;;;;;;;4919011;29;20044;-84
2022/07/13 09:48:39;;;;;;;9.27;2.70;;;;;;;;;;4917906;29;20048;-83
2022/07/13 09:51:08;;;;;;;10.73;3.40;;;;;;;;;;4919546;29;20096;-79
2022/07/13 09:53:38;;;;;;;7.68;3.35;;;;;;;;;;4991283;23;20077;-81
2022/07/13 09:56:07;;;;;;;11.20;3.08;;;;;;;;;;5066207;23;20145;-82
2022/07/13 09:58:35;;;;;;;5.90;2.70;;;;;;;;;;5007515;23;20048;-83
2022/07/13 10:01:06;;;;;;;14.18;3.00;;;;;;;;;;4920249;29;20059;-79
2022/07/13 10:03:32;;;;;;;5.93;2.45;;;;;;;;;;4916768;29;20040;-80
2022/07/13 10:05:59;;;;;;;7.60;2.70;;;;;;;;;;4914993;29;20422;-83
2022/07/13 10:08:26;;;;;;;8.30;2.22;;;;;;;;;;4917362;29;20056;-80
2022/07/13 10:10:52;;;;;;;7.78;2.60;;;;;;;;;;4917387;29;20059;-83
2022/07/13 10:13:19;;;;;;;9.75;2.30;;;;;;;;;;4900140;29;20634;-83
2022/07/13 10:15:46;;;;;;;3.78;2.22;;;;;;;;;;4918647;29;20112;-81
2022/07/13 10:18:19;;;;;;;11.27;2.35;;;;;;;;;;4912017;29;20041;-82
2022/07/13 10:20:48;;;;;;;;;;;;;;;;;;4896962;29;20052;-81
2022/07/13 10:23:30;;;;;;;2.70;1.80;;;;;;;;;;4921840;29;19931;-81
2022/07/13 10:25:56;;;;;;;6.53;2.17;;;;;;;;;;4951878;23;20128;-82
2022/07/13 10:28:22;;;;;;;6.25;2.65;;;;;;;;;;4899494;29;20052;-80
2022/07/13 10:30:49;;;;;;;7.22;2.72;;;;;;;;;;4901359;29;20132;-82
2022/07/13 10:35:55;;;;;;;9.25;3.10;;;;;;;;;;4936610;29;20048;-80
2022/07/13 10:38:27;;;;;;;9.38;3.67;;;;;;;;;;4929945;29;20043;-82
2022/07/13 10:44:01;;;;;;;11.48;3.50;;;;;;;;;;5300603;23;20052;-83
2022/07/13 10:47:00;;;;;;;10.20;3.50;;;;;;;;;;4988541;23;20052;31
2022/07/13 10:49:47;;;;;;;16.27;3.63;;;;;;;;;;4860303;29;20057;-81
2022/07/13 10:52:25;;;;;;;5.93;3.10;;;;;;;;;;5009126;23;20120;-80
2022/07/13 10:55:13;;;;;;;5.75;2.40;;;;;;;;;;4910087;29;20053;-82
2022/07/13 10:57:46;;;;;;;4.20;2.35;;;;;;;;;;4909825;29;20043;-79
2022/07/13 11:00:19;;;;;;;9.00;2.30;;;;;;;;;;4914694;29;20040;-81
2022/07/13 11:02:47;;;;;;;;;;;;;;;;;;5077897;23;20121;-82
2022/07/13 11:05:15;;;;;;;4.45;2.65;;;;;;;;;;4920442;29;19934;-80
2022/07/13 11:07:43;;;;;;;6.00;2.70;;;;;;;;;;5275019;23;20052;-81
2022/07/13 11:10:18;;;;;;;3.78;2.30;;;;;;;;;;4956532;29;20040;-82
2022/07/13 11:13:00;;;;;;;4.07;2.22;;;;;;;;;;4951977;29;20044;-80
2022/07/13 11:18:28;;;;;;;8.10;2.20;;;;;;;;;;5133341;23;20060;-81
2022/07/13 11:20:56;;;;;;;7.40;2.20;;;;;;;;;;5050198;23;20150;-80
2022/07/13 11:26:51;;;;;;;8.18;2.55;;;;;;;;;;4904393;29;20057;-86
2022/07/13 11:29:35;;;;;;;3.72;1.90;;;;;;;;;;4902412;29;20044;-83
2022/07/13 11:32:04;;;;;;;9.27;2.40;;;;;;;;;;4903454;29;20037;-81
2022/07/13 11:34:30;;;;;;;5.78;2.15;;;;;;;;;;4902461;29;20044;-80
2022/07/13 11:37:01;;;;;;;6.15;1.85;;;;;;;;;;4892383;29;20053;-82
2022/07/13 11:39:33;;;;;;;4.57;1.80;;;;;;;;;;4892174;29;20420;-77
2022/07/13 11:42:02;;;;;;;8.27;1.65;;;;;;;;;;4892615;29;20053;-79
2022/07/13 11:44:30;;;;;;;8.60;2.10;;;;;;;;;;4912102;29;20073;-81
2022/07/13 11:46:58;;;;;;;3.83;1.65;;;;;;;;;;4906508;29;20029;-81
2022/07/13 11:51:53;;;;;;;12.02;2.00;;;;;;;;;;4940410;29;20084;-83
2022/07/13 11:54:22;;;;;;;5.93;2.00;;;;;;;;;;4925583;23;20060;-82
2022/07/13 11:56:51;;;;;;;6.85;1.98;;;;;;;;;;4924094;29;20053;-80
2022/07/13 11:59:35;;;;;;;9.27;1.90;;;;;;;;;;4921148;29;20128;-82
2022/07/13 12:02:08;;;;;;;8.88;1.58;;;;;;;;;;4884235;29;20101;-81
2022/07/13 12:04:47;;;;;;;6.95;2.22;;;;;;;;;;4916851;29;20041;-79
2022/07/13 12:07:23;;;;;;;6.20;2.10;;;;;;;;;;4902717;29;20052;-82
2022/07/13 12:10:04;;;;;;;7.50;1.85;;;;;;;;;;4913141;29;20045;-83
2022/07/13 12:12:34;;;;;;;6.80;1.85;;;;;;;;;;4880428;29;20048;-76
2022/07/13 12:15:01;;;;;;;6.95;1.70;;;;;;;;;;4909368;29;20047;-82
2022/07/13 12:17:28;;;;;;;5.35;2.03;;;;;;;;;;4912341;29;20053;-81
2022/07/13 12:20:16;;;;;;;5.88;1.83;;;;;;;;;;4911239;29;20047;-80
2022/07/13 12:22:51;;;;;;;5.43;2.10;;;;;;;;;;4902083;29;20060;-81
2022/07/13 12:25:24;;;;;;;4.38;1.40;;;;;;;;;;4915997;29;20036;-82
2022/07/13 12:27:56;;;;;;;5.55;1.60;;;;;;;;;;4922137;29;20042;-83
2022/07/13 12:30:22;;;;;;;5.82;1.50;;;;;;;;;;4986076;23;20066;-80
2022/07/13 12:32:59;;;;;;;5.47;1.27;;;;;;;;;;4980426;23;20109;-84
2022/07/13 12:35:35;;;;;;;4.88;1.65;;;;;;;;;;5154457;23;20060;-83
2022/07/13 12:40:42;;;;;;;4.53;1.30;;;;;;;;;;5255007;23;20059;-81
2022/07/13 12:48:43;;;;;;;4.78;1.40;;;;;;;;;;4929492;23;20052;-80
2022/07/13 12:51:11;;;;;;;4.68;1.40;;;;;;;;;;4889187;29;20096;-80
2022/07/13 12:53:53;;;;;;;4.35;1.70;;;;;;;;;;5087944;23;21237;-79
2022/07/13 12:56:25;;;;;;;4.18;1.05;;;;;;;;;;5224432;24;20137;-78
2022/07/13 12:58:52;;;;;;;4.88;1.60;;;;;;;;;;4901740;29;20055;-78
2022/07/13 13:01:29;;;;;;;2.55;1.30;;;;;;;;;;4901613;29;20056;-78
2022/07/13 13:04:00;;;;;;;6.85;1.10;;;;;;;;;;4907300;29;20097;-80
2022/07/13 13:06:26;;;;;;;5.63;1.00;;;;;;;;;;4914764;29;20040;-80
2022/07/13 13:09:05;;;;;;;6.60;1.30;;;;;;;;;;4939883;23;20052;-81
2022/07/13 13:11:33;;;;;;;4.40;1.40;;;;;;;;;;4962490;23;20087;-80
2022/07/13 13:19:14;;;;;;;6.45;1.23;;;;;;;;;;4899388;29;20057;-83
2022/07/13 13:21:41;;;;;;;5.40;1.40;;;;;;;;;;4901588;29;20053;-81
2022/07/13 13:24:08;;;;;;;7.78;1.17;;;;;;;;;;4901019;29;20101;-82
2022/07/13 13:26:35;;;;;;;10.88;1.90;;;;;;;;;;4901276;29;20051;-81
2022/07/13 13:31:47;;;;;;;7.97;1.30;;;;;;;;;;4881196;29;20051;-79
2022/07/13 13:34:13;;;;;;;6.63;1.20;;;;;;;;;;4892952;29;20053;-83
2022/07/13 13:36:40;;;;;;;7.38;1.40;;;;;;;;;;4895671;29;20048;-82
2022/07/13 13:39:07;;;;;;;9.27;1.40;;;;;;;;;;4908967;29;20045;-80
2022/07/13 13:41:33;;;;;;;3.88;1.13;;;;;;;;;;4888146;29;20092;-81
2022/07/13 13:43:59;;;;;;;5.10;1.30;;;;;;;;;;4894031;29;20045;-79
2022/07/13 13:46:25;;;;;;;4.13;0.90;;;;;;;;;;4893098;29;20128;-81
2022/07/13 13:48:51;;;;;;;8.20;1.30;;;;;;;;;;4893516;29;20057;-82
2022/07/13 13:51:17;;;;;;;4.45;1.10;;;;;;;;;;4893175;29;20060;-81
2022/07/13 13:53:43;;;;;;;12.32;1.55;;;;;;;;;;4893087;29;20045;-81
2022/07/13 13:56:09;;;;;;;6.35;1.10;;;;;;;;;;4898965;29;20081;-81
2022/07/13 13:58:35;;;;;;;6.55;1.33;;;;;;;;;;4895886;29;20041;-82
2022/07/13 14:01:01;;;;;;;10.75;1.27;;;;;;;;;;4882145;29;20105;-82
2022/07/13 14:03:28;;;;;;;13.85;1.65;;;;;;;;;;4887402;29;20057;-74
2022/07/13 14:05:54;;;;;;;4.80;1.20;;;;;;;;;;4875741;29;20076;-78
2022/07/13 14:08:20;;;;;;;8.38;1.60;;;;;;;;;;4891984;29;20558;-77
2022/07/13 14:10:47;;;;;;;8.88;1.42;;;;;;;;;;4888511;29;20378;-81
2022/07/13 14:13:13;;;;;;;9.38;1.65;;;;;;;;;;4884852;29;20053;-80
2022/07/13 14:15:39;;;;;;;11.23;1.65;;;;;;;;;;4884591;29;20099;-82
2022/07/13 14:18:04;;;;;;;11.30;1.63;;;;;;;;;;4887128;29;20057;-79
2022/07/13 14:20:30;;;;;;;6.13;1.17;;;;;;;;;;4889653;29;20071;-80
2022/07/13 14:22:57;;;;;;;20.05;1.98;;;;;;;;;;4884810;29;20062;-80
2022/07/13 14:25:28;;;;;;;10.07;1.60;;;;;;;;;;4883986;29;20037;-80
2022/07/13 14:27:54;;;;;;;7.18;1.70;;;;;;;;;;4887317;29;20508;-83
2022/07/13 14:30:22;;;;;;;13.63;1.60;;;;;;;;;;4877210;29;20109;-80
2022/07/13 14:32:47;;;;;;;10.45;1.67;;;;;;;;;;4884265;29;20053;-81
2022/07/13 14:35:13;;;;;;;7.90;1.77;;;;;;;;;;4887351;29;20616;-81
2022/07/13 14:37:40;;;;;;;11.35;1.55;;;;;;;;;;4876216;29;20045;-82
2022/07/13 14:40:07;;;;;;;8.45;1.55;;;;;;;;;;4877444;29;20419;-76
2022/07/13 14:42:33;;;;;;;6.82;1.55;;;;;;;;;;4886969;29;20108;-80
2022/07/13 14:44:59;;;;;;;6.63;1.67;;;;;;;;;;4888304;29;20044;-81
2022/07/13 14:47:25;;;;;;;7.63;1.48;;;;;;;;;;4884654;29;20049;-80
2022/07/13 14:49:52;;;;;;;7.00;1.52;;;;;;;;;;4886823;29;20087;-81
2022/07/13 14:52:18;;;;;;;7.10;1.30;;;;;;;;;;4887002;29;20084;-81
2022/07/13 14:54:44;;;;;;;5.32;1.45;;;;;;;;;;4886497;29;20318;-79
2022/07/13 14:57:10;;;;;;;8.10;1.50;;;;;;;;;;4889218;29;20051;-80
2022/07/13 14:59:36;;;;;;;6.43;1.70;;;;;;;;;;4891858;29;20093;-82
2022/07/13 15:02:02;;;;;;;14.25;1.70;;;;;;;;;;4894807;29;20041;-82
2022/07/13 15:04:28;;;;;;;5.72;1.50;;;;;;;;;;4885907;29;20085;-80
2022/07/13 15:06:54;;;;;;;8.18;1.48;;;;;;;;;;4887786;29;20056;-80
2022/07/13 15:09:20;;;;;;;9.82;1.92;;;;;;;;;;4891349;29;20049;-80
2022/07/13 15:11:50;;;;;;;9.63;1.50;;;;;;;;;;4893447;29;20551;-79
2022/07/13 15:14:16;;;;;;;7.18;1.70;;;;;;;;;;4890670;29;20101;-76
2022/07/13 15:16:43;;;;;;;5.13;1.50;;;;;;;;;;4893251;29;20040;-77
2022/07/13 15:19:10;;;;;;;9.20;1.50;;;;;;;;;;4886254;29;20053;-82
2022/07/13 15:21:37;;;;;;;6.13;1.42;;;;;;;;;;4881144;29;20036;-84
2022/07/13 15:24:04;;;;;;;9.32;1.80;;;;;;;;;;4877994;29;20055;-82
2022/07/13 15:26:30;;;;;;;5.95;1.85;;;;;;;;;;5076086;23;20072;-81
2022/07/13 15:28:57;;;;;;;5.60;1.52;;;;;;;;;;4942499;29;20094;-82
2022/07/13 15:31:24;;;;;;;12.25;2.00;;;;;;;;;;4941242;29;20064;-82
2022/07/13 15:33:50;;;;;;;10.55;1.73;;;;;;;;;;4945692;29;20079;-81
2022/07/13 15:36:17;;;;;;;5.70;1.58;;;;;;;;;;4932944;29;20036;-79
2022/07/13 15:38:42;;;;;;;8.40;1.83;;;;;;;;;;4952594;29;20058;-81
2022/07/13 15:41:24;;;;;;;11.77;2.17;;;;;;;;;;4944797;29;20043;-81
2022/07/13 15:43:52;;;;;;;7.85;2.05;;;;;;;;;;4936484;29;20075;-80